Time;durP1;ratioP1;P1;durP2;ratioP2;P2;SDS_P1;SDS_P2;PMS_P1;PMS_P2;Temp;Humidity;BMP_temperature;BMP_pressure;BME280_temperature;BME280_humidity;BME280_pressure;Samples;Min_cycle;Max_cycle;Signal;HPM_P1;HPM_P2
2022/02/10 00:03:33;;;;;;;6.35;2.47;;;;;;;;;;3862202;28;10002030;-69
2022/02/10 00:14:40;;;;;;;5.53;3.10;;;;;;;;;;5109165;28;20140;-69
2022/02/10 00:17:25;;;;;;;4.72;2.58;;;;;;;;;;5118723;27;20050;-69
2022/02/10 00:20:11;;;;;;;5.68;2.33;;;;;;;;;;5119123;27;20047;-69
2022/02/10 00:23:00;;;;;;;5.40;2.47;;;;;;;;;;5111069;27;20071;-69
2022/02/10 00:34:17;;;;;;;6.25;2.78;;;;;;;;;;5085143;27;20107;-69
2022/02/10 00:36:57;;;;;;;3.55;2.35;;;;;;;;;;5114554;27;20344;-69
2022/02/10 00:39:56;;;;;;;4.53;2.42;;;;;;;;;;5114361;27;20487;-69
2022/02/10 00:42:26;;;;;;;5.13;2.13;;;;;;;;;;5111565;27;20095;-69
2022/02/10 00:44:54;;;;;;;4.85;2.38;;;;;;;;;;5122960;27;20137;-69
2022/02/10 00:47:25;;;;;;;3.65;1.92;;;;;;;;;;5112259;27;20412;-69
2022/02/10 00:49:57;;;;;;;6.72;2.25;;;;;;;;;;5123287;27;20142;-69
2022/02/10 00:52:25;;;;;;;6.10;1.92;;;;;;;;;;5121875;27;20375;-69
2022/02/10 00:54:53;;;;;;;7.05;2.60;;;;;;;;;;5114539;27;20503;-69
2022/02/10 00:57:24;;;;;;;4.82;2.33;;;;;;;;;;5111515;27;20063;-69
2022/02/10 01:00:16;;;;;;;2.97;1.67;;;;;;;;;;5113254;27;20047;-69
2022/02/10 01:11:59;;;;;;;4.35;2.08;;;;;;;;;;5114462;27;20104;-69
2022/02/10 01:24:27;;;;;;;5.45;1.95;;;;;;;;;;5119917;27;20051;-69
2022/02/10 01:31:14;;;;;;;4.28;1.75;;;;;;;;;;5112714;27;20616;-71
2022/02/10 01:33:44;;;;;;;3.53;1.85;;;;;;;;;;5110777;27;20101;-69
2022/02/10 01:36:13;;;;;;;5.25;1.90;;;;;;;;;;5112537;27;20051;-69
2022/02/10 01:38:41;;;;;;;3.88;1.70;;;;;;;;;;5115971;27;20051;-69
2022/02/10 01:58:09;;;;;;;4.40;1.65;;;;;;;;;;5117998;27;20044;-69
2022/02/10 02:03:26;;;;;;;4.93;1.90;;;;;;;;;;5112698;27;20071;-69
2022/02/10 02:06:09;;;;;;;3.20;1.53;;;;;;;;;;3808094;28;10023222;-69
2022/02/10 02:08:40;;;;;;;3.70;1.75;;;;;;;;;;2462168;28;10002225;-69
2022/02/10 02:11:08;;;;;;;4.18;1.60;;;;;;;;;;5110067;28;20040;-69
2022/02/10 02:13:37;;;;;;;2.97;1.92;;;;;;;;;;5112190;27;20048;-69
2022/02/10 02:16:08;;;;;;;3.08;1.52;;;;;;;;;;5114886;27;20078;-69
2022/02/10 02:18:36;;;;;;;5.43;1.55;;;;;;;;;;5117917;27;20146;-69
2022/02/10 02:21:11;;;;;;;2.33;1.50;;;;;;;;;;5110671;27;20079;-69
2022/02/10 02:23:39;;;;;;;;;;;;;;;;;;5105857;28;20139;-69
2022/02/10 02:26:14;;;;;;;2.28;1.27;;;;;;;;;;5109262;28;20010;-69
2022/02/10 02:28:46;;;;;;;3.80;1.70;;;;;;;;;;5109129;27;20093;-69
2022/02/10 02:31:20;;;;;;;2.65;1.55;;;;;;;;;;5112590;27;20098;-69
2022/02/10 02:34:23;;;;;;;2.60;1.50;;;;;;;;;;5118579;27;20043;-70
2022/02/10 02:40:08;;;;;;;2.25;1.42;;;;;;;;;;5111137;27;20099;-69
2022/02/10 03:05:03;;;;;;;2.42;1.38;;;;;;;;;;5112929;27;20448;-69
2022/02/10 03:07:42;;;;;;;2.20;1.08;;;;;;;;;;5103246;28;20526;-69
2022/02/10 03:10:30;;;;;;;1.90;1.25;;;;;;;;;;5119547;27;20044;-69
2022/02/10 03:12:59;;;;;;;2.33;1.05;;;;;;;;;;5118813;27;20116;-69
2022/02/10 03:15:35;;;;;;;1.98;1.45;;;;;;;;;;5119026;27;20066;-69
2022/02/10 03:18:17;;;;;;;3.00;1.85;;;;;;;;;;5108923;28;20047;-69
2022/02/10 03:21:09;;;;;;;2.88;1.10;;;;;;;;;;5116001;27;20043;-69
2022/02/10 04:02:50;;;;;;;1.45;0.95;;;;;;;;;;5114993;27;20131;-69
2022/02/10 04:05:50;;;;;;;3.22;1.95;;;;;;;;;;5112795;27;20086;-69
2022/02/10 04:08:49;;;;;;;2.15;1.50;;;;;;;;;;3367505;28;10021439;-70
2022/02/10 04:11:41;;;;;;;;;;;;;;;;;;3342736;28;10002179;-69
2022/02/10 04:14:17;;;;;;;2.05;1.27;;;;;;;;;;5125448;27;20454;-69
2022/02/10 04:16:53;;;;;;;2.22;0.98;;;;;;;;;;5116153;27;20043;-69
2022/02/10 04:19:51;;;;;;;2.55;1.05;;;;;;;;;;5131644;27;20644;-69
2022/02/10 04:22:27;;;;;;;2.50;1.15;;;;;;;;;;5119927;27;20155;-69
2022/02/10 04:25:21;;;;;;;1.92;1.23;;;;;;;;;;5097273;27;20628;-69
2022/02/10 04:28:06;;;;;;;1.70;1.33;;;;;;;;;;5119456;27;20455;-69
2022/02/10 04:30:58;;;;;;;4.43;1.67;;;;;;;;;;5113964;27;20050;-69
2022/02/10 04:53:41;;;;;;;2.15;1.30;;;;;;;;;;5112437;27;20048;-69
2022/02/10 04:56:27;;;;;;;1.63;1.08;;;;;;;;;;5099171;27;20052;-69
2022/02/10 04:59:14;;;;;;;2.45;1.23;;;;;;;;;;5109936;27;20158;-69
2022/02/10 05:02:02;;;;;;;3.22;1.40;;;;;;;;;;5112479;27;20517;-69
2022/02/10 05:04:57;;;;;;;2.60;1.02;;;;;;;;;;5120041;27;21591;-69
2022/02/10 05:19:11;;;;;;;2.60;1.27;;;;;;;;;;5027952;28;20421;-69
2022/02/10 05:21:57;;;;;;;1.45;0.75;;;;;;;;;;5082730;28;20729;-69
2022/02/10 05:24:40;;;;;;;1.67;1.00;;;;;;;;;;5103261;27;20083;-69
2022/02/10 05:33:06;;;;;;;2.75;1.38;;;;;;;;;;5105602;28;20078;-69
2022/02/10 05:35:38;;;;;;;1.10;0.80;;;;;;;;;;5101553;27;20040;-69
2022/02/10 05:38:10;;;;;;;1.75;1.08;;;;;;;;;;5097979;28;20161;-69
2022/02/10 05:46:36;;;;;;;2.20;1.02;;;;;;;;;;5102446;28;20554;-69
2022/02/10 05:54:44;;;;;;;0.85;0.80;;;;;;;;;;5105003;27;20458;-69
2022/02/10 05:57:30;;;;;;;1.38;0.93;;;;;;;;;;5109173;27;20490;-69
2022/02/10 06:38:17;;;;;;;1.17;0.80;;;;;;;;;;5104991;27;20168;-69
2022/02/10 06:48:24;;;;;;;3.20;1.10;;;;;;;;;;5102591;28;20104;-68
2022/02/10 06:51:05;;;;;;;1.23;0.90;;;;;;;;;;5099505;27;20039;-68
2022/02/10 06:53:45;;;;;;;3.00;1.42;;;;;;;;;;5097227;28;20591;-68
2022/02/10 07:49:48;;;;;;;4.63;1.30;;;;;;;;;;5032029;28;20045;-68
2022/02/10 07:55:29;;;;;;;3.65;1.38;;;;;;;;;;5042219;28;20045;-68
2022/02/10 07:58:17;;;;;;;2.95;1.25;;;;;;;;;;5040537;28;20063;-68
2022/02/10 08:57:25;;;;;;;1.58;1.13;;;;;;;;;;4978645;28;20050;-69
2022/02/10 09:00:34;;;;;;;2.85;1.27;;;;;;;;;;4990811;28;20058;-69
2022/02/10 09:06:03;;;;;;;3.17;1.73;;;;;;;;;;4978265;28;20053;-70
2022/02/10 09:17:25;;;;;;;2.78;1.58;;;;;;;;;;4987856;28;20413;-70
2022/02/10 09:59:24;;;;;;;4.80;1.63;;;;;;;;;;4982968;28;20414;-70
2022/02/10 10:02:03;;;;;;;5.45;1.50;;;;;;;;;;4986804;28;20108;-70
2022/02/10 10:04:59;;;;;;;4.66;1.80;;;;;;;;;;2941159;28;10003292;-71
2022/02/10 10:07:35;;;;;;;3.42;1.58;;;;;;;;;;3605989;28;10001110;-71
2022/02/10 10:10:30;;;;;;;3.42;1.67;;;;;;;;;;4988481;28;20050;-71
2022/02/10 10:15:59;;;;;;;5.53;1.27;;;;;;;;;;4985005;28;20048;-72
2022/02/10 10:21:32;;;;;;;5.22;1.45;;;;;;;;;;4984996;28;20568;-71
2022/02/10 10:24:39;;;;;;;5.55;1.63;;;;;;;;;;4988102;28;20553;-71
2022/02/10 10:52:25;;;;;;;4.55;1.85;;;;;;;;;;4989196;28;20045;-70
2022/02/10 10:55:09;;;;;;;5.50;1.73;;;;;;;;;;4988324;28;20104;-70
2022/02/10 10:57:42;;;;;;;5.30;2.20;;;;;;;;;;4990035;28;20078;-70
2022/02/10 11:00:37;;;;;;;4.57;1.45;;;;;;;;;;4995409;28;20068;-70
2022/02/10 11:37:24;;;;;;;3.25;1.67;;;;;;;;;;4983689;28;20074;-71
2022/02/10 11:40:07;;;;;;;3.80;1.98;;;;;;;;;;4970530;28;20110;-71
2022/02/10 11:42:50;;;;;;;4.30;1.58;;;;;;;;;;4974856;28;20089;-71
2022/02/10 12:00:57;;;;;;;3.42;1.63;;;;;;;;;;4985267;28;20042;-71
2022/02/10 13:23:53;;;;;;;2.83;1.77;;;;;;;;;;5062978;28;20052;-70
2022/02/10 13:33:19;;;;;;;4.57;2.05;;;;;;;;;;5072365;28;20060;-69
2022/02/10 13:36:20;;;;;;;4.32;1.85;;;;;;;;;;5066379;28;20045;-70
2022/02/10 14:10:23;;;;;;;7.90;1.90;;;;;;;;;;5046334;28;20049;-70
2022/02/10 14:12:58;;;;;;;4.80;1.88;;;;;;;;;;5053394;28;20143;-70
2022/02/10 14:15:40;;;;;;;6.45;1.85;;;;;;;;;;5050722;28;20489;-69
2022/02/10 14:18:13;;;;;;;4.38;1.85;;;;;;;;;;5044036;28;20437;-70
2022/02/10 14:20:57;;;;;;;4.18;2.00;;;;;;;;;;5046739;28;20057;-69
2022/02/10 14:28:59;;;;;;;4.63;2.15;;;;;;;;;;5054228;28;20053;-70
2022/02/10 14:31:29;;;;;;;5.30;2.00;;;;;;;;;;5055781;28;20121;-70
2022/02/10 14:33:59;;;;;;;8.05;2.10;;;;;;;;;;5052228;28;20131;-69
2022/02/10 14:36:33;;;;;;;5.03;1.80;;;;;;;;;;5052178;28;20083;-70
2022/02/10 15:13:40;;;;;;;6.55;2.28;;;;;;;;;;5057647;28;20111;-69
2022/02/10 15:21:48;;;;;;;5.45;2.10;;;;;;;;;;5050376;28;20060;-70
2022/02/10 15:31:24;;;;;;;8.07;2.60;;;;;;;;;;5055233;28;20048;-70
2022/02/10 15:36:26;;;;;;;7.35;2.63;;;;;;;;;;5003963;28;20192;-71
2022/02/10 15:50:39;;;;;;;6.90;2.95;;;;;;;;;;5025041;28;20064;-70
2022/02/10 16:18:23;;;;;;;5.35;2.30;;;;;;;;;;5014177;28;20049;-70
2022/02/10 16:21:01;;;;;;;6.13;2.40;;;;;;;;;;5040121;28;20057;-69
2022/02/10 16:23:33;;;;;;;3.97;2.15;;;;;;;;;;5039550;28;20060;-70
2022/02/10 16:26:15;;;;;;;6.03;2.55;;;;;;;;;;5040097;28;20497;-70
2022/02/10 16:28:45;;;;;;;5.32;2.38;;;;;;;;;;5042030;28;20057;-67
2022/02/10 16:31:23;;;;;;;6.90;2.10;;;;;;;;;;3252926;28;10022099;-68
2022/02/10 16:33:57;;;;;;;7.20;2.63;;;;;;;;;;2937880;28;10001847;-67
2022/02/10 16:36:32;;;;;;;8.50;2.20;;;;;;;;;;5024751;28;20522;-69
2022/02/10 16:39:06;;;;;;;10.25;2.90;;;;;;;;;;5025656;28;20490;-68
2022/02/10 16:41:39;;;;;;;4.63;2.28;;;;;;;;;;5022462;28;20412;-68
2022/02/10 16:44:13;;;;;;;8.00;2.65;;;;;;;;;;5014520;28;20073;-68
2022/02/10 16:46:48;;;;;;;6.93;2.60;;;;;;;;;;5024193;28;20437;-69
2022/02/10 16:49:23;;;;;;;8.40;2.63;;;;;;;;;;5023802;28;20373;-68
2022/02/10 16:51:56;;;;;;;5.55;2.38;;;;;;;;;;5026424;28;20049;-68
2022/02/10 16:54:33;;;;;;;3.22;2.13;;;;;;;;;;5024238;28;20081;-68
2022/02/10 16:57:14;;;;;;;4.93;2.63;;;;;;;;;;5017947;28;20046;-68
2022/02/10 16:59:53;;;;;;;7.90;2.15;;;;;;;;;;5023467;28;20492;-68
2022/02/10 17:05:46;;;;;;;8.65;2.97;;;;;;;;;;5022338;28;20054;-68
2022/02/10 17:14:09;;;;;;;9.85;2.80;;;;;;;;;;5011573;28;21297;-68
2022/02/10 17:20:00;;;;;;;4.93;2.10;;;;;;;;;;5010098;28;20046;-69
2022/02/10 17:25:27;;;;;;;5.72;2.15;;;;;;;;;;4980259;28;20050;-68
2022/02/10 17:28:00;;;;;;;6.78;2.70;;;;;;;;;;5009949;28;20048;-71
2022/02/10 17:31:04;;;;;;;10.18;3.45;;;;;;;;;;5006341;28;20513;-70
2022/02/10 17:33:38;;;;;;;9.25;2.72;;;;;;;;;;5009981;28;20105;-70
2022/02/10 17:36:13;;;;;;;6.72;2.50;;;;;;;;;;5006941;28;20081;-70
2022/02/10 17:41:43;;;;;;;8.55;3.72;;;;;;;;;;5008298;28;20111;-70
2022/02/10 17:44:36;;;;;;;7.07;3.05;;;;;;;;;;5008149;28;20081;-70
2022/02/10 17:52:55;;;;;;;9.32;3.83;;;;;;;;;;5010262;28;20057;-67
2022/02/10 17:55:24;;;;;;;7.50;3.60;;;;;;;;;;5010683;28;20128;-66
2022/02/10 17:57:52;;;;;;;9.32;3.33;;;;;;;;;;5005025;28;20127;-66
2022/02/10 18:00:23;;;;;;;11.07;4.00;;;;;;;;;;5008920;28;20078;-66
2022/02/10 18:02:55;;;;;;;11.48;3.30;;;;;;;;;;5006923;28;20042;-66
2022/02/10 18:08:11;;;;;;;7.03;3.53;;;;;;;;;;5005348;28;20077;-66
2022/02/10 18:13:41;;;;;;;9.80;3.35;;;;;;;;;;4967821;28;20496;-66
2022/02/10 18:16:16;;;;;;;10.10;3.47;;;;;;;;;;5004170;28;21196;-66
2022/02/10 18:18:51;;;;;;;;;;;;;;;;;;5006379;28;20041;-66
2022/02/10 18:21:35;;;;;;;5.60;3.35;;;;;;;;;;5007051;28;20159;-66
2022/02/10 18:24:30;;;;;;;8.75;3.53;;;;;;;;;;5007320;28;20769;-66
2022/02/10 18:27:04;;;;;;;8.07;3.58;;;;;;;;;;5004936;28;20046;-66
2022/02/10 18:29:48;;;;;;;7.00;3.15;;;;;;;;;;5002716;28;20054;-66
2022/02/10 19:06:58;;;;;;;9.95;3.65;;;;;;;;;;4998726;28;20057;-66
2022/02/10 19:09:32;;;;;;;7.80;3.45;;;;;;;;;;5005147;28;20042;-66
2022/02/10 19:12:04;;;;;;;8.15;3.85;;;;;;;;;;5007732;28;20168;-66
2022/02/10 19:14:37;;;;;;;7.70;3.88;;;;;;;;;;5009743;28;20093;-66
2022/02/10 19:17:06;;;;;;;9.73;3.70;;;;;;;;;;5003777;28;20054;-66
2022/02/10 19:19:35;;;;;;;10.05;3.72;;;;;;;;;;5003904;28;20049;-66
2022/02/10 19:22:04;;;;;;;10.23;4.05;;;;;;;;;;5005078;28;20045;-65
2022/02/10 19:24:32;;;;;;;8.50;3.78;;;;;;;;;;5004686;28;20458;-66
2022/02/10 19:27:01;;;;;;;7.70;3.78;;;;;;;;;;5005084;28;20446;-65
2022/02/10 19:29:31;;;;;;;8.38;3.90;;;;;;;;;;5006965;28;20053;-65
2022/02/10 19:32:00;;;;;;;13.48;3.92;;;;;;;;;;5005281;28;20054;-65
2022/02/10 19:34:33;;;;;;;8.95;4.00;;;;;;;;;;5005955;28;20501;-65
2022/02/10 19:37:20;;;;;;;7.25;3.78;;;;;;;;;;5004233;28;20056;-65
2022/02/10 19:39:57;;;;;;;6.93;3.65;;;;;;;;;;5002853;28;20124;-65
2022/02/10 19:42:28;;;;;;;9.05;3.97;;;;;;;;;;5003748;28;20045;-65
2022/02/10 19:44:59;;;;;;;10.98;3.92;;;;;;;;;;5004985;28;20204;-65
2022/02/10 19:47:30;;;;;;;10.43;3.75;;;;;;;;;;5003635;28;20062;-65
2022/02/10 19:49:58;;;;;;;11.60;4.13;;;;;;;;;;5006287;28;20089;-65
2022/02/10 19:52:27;;;;;;;12.55;4.00;;;;;;;;;;5007001;28;20084;-65
2022/02/10 19:54:57;;;;;;;11.77;4.38;;;;;;;;;;5005931;28;20379;-65
2022/02/10 19:57:26;;;;;;;9.25;4.10;;;;;;;;;;4996497;28;20054;-65
2022/02/10 19:59:56;;;;;;;12.23;4.93;;;;;;;;;;4985446;28;20081;-66
2022/02/10 20:02:25;;;;;;;8.57;4.55;;;;;;;;;;4984249;28;20058;-66
2022/02/10 20:05:09;;;;;;;9.20;4.50;;;;;;;;;;2044286;28;10023758;-66
2022/02/10 20:07:41;;;;;;;10.18;4.75;;;;;;;;;;3621502;28;10001339;-66
2022/02/10 20:10:11;;;;;;;11.05;4.53;;;;;;;;;;4984676;28;20054;-66
2022/02/10 20:12:41;;;;;;;9.82;4.95;;;;;;;;;;4983395;28;20054;-66
2022/02/10 20:15:11;;;;;;;11.65;5.38;;;;;;;;;;4983647;28;20395;-66
2022/02/10 20:17:40;;;;;;;10.55;4.47;;;;;;;;;;4984257;28;20050;-66
2022/02/10 20:20:11;;;;;;;10.90;4.85;;;;;;;;;;4983349;28;20136;-66
2022/02/10 20:22:43;;;;;;;15.88;5.50;;;;;;;;;;4986214;28;20550;-66
2022/02/10 20:25:32;;;;;;;11.52;5.13;;;;;;;;;;4983432;28;20450;-66
2022/02/10 20:28:01;;;;;;;10.60;4.95;;;;;;;;;;4984715;28;20494;-66
2022/02/10 20:30:31;;;;;;;10.02;5.10;;;;;;;;;;4984468;28;20173;-66
2022/02/10 20:33:00;;;;;;;11.30;5.05;;;;;;;;;;4983972;28;20586;-66
2022/02/10 20:35:31;;;;;;;11.23;5.22;;;;;;;;;;4986499;28;20121;-66
2022/02/10 20:38:02;;;;;;;10.90;5.18;;;;;;;;;;4981113;28;20082;-66
2022/02/10 20:40:33;;;;;;;11.10;4.93;;;;;;;;;;4984423;28;20495;-66
2022/02/10 20:43:06;;;;;;;9.95;4.65;;;;;;;;;;4982089;28;20498;-66
2022/02/10 20:45:35;;;;;;;12.90;5.47;;;;;;;;;;4989035;28;20082;-66
2022/02/10 20:48:06;;;;;;;11.68;5.40;;;;;;;;;;4988091;28;20050;-66
2022/02/10 20:50:36;;;;;;;14.23;5.50;;;;;;;;;;4986791;28;20054;-66
2022/02/10 20:53:04;;;;;;;14.60;5.88;;;;;;;;;;4986998;28;20046;-66
2022/02/10 20:55:33;;;;;;;12.35;5.28;;;;;;;;;;4989920;28;20058;-66
2022/02/10 20:58:01;;;;;;;14.45;5.72;;;;;;;;;;4999532;28;20139;-66
2022/02/10 21:00:32;;;;;;;10.30;5.35;;;;;;;;;;5007144;28;20510;-66
2022/02/10 21:03:00;;;;;;;13.32;5.80;;;;;;;;;;5004970;28;20061;-66
2022/02/10 21:05:38;;;;;;;9.15;5.13;;;;;;;;;;5008450;28;20244;-66
2022/02/10 21:08:12;;;;;;;13.40;6.13;;;;;;;;;;5006873;28;20064;-66
2022/02/10 21:10:42;;;;;;;16.75;5.05;;;;;;;;;;5008322;28;20400;-66
2022/02/10 21:13:12;;;;;;;14.30;5.63;;;;;;;;;;5007254;28;20077;-66
2022/02/10 21:15:43;;;;;;;12.23;5.18;;;;;;;;;;5006778;28;20320;-67
2022/02/10 21:18:13;;;;;;;15.45;6.10;;;;;;;;;;5007357;28;20049;-66
2022/02/10 21:20:44;;;;;;;11.40;5.97;;;;;;;;;;5007710;28;20042;-66
2022/02/10 21:23:20;;;;;;;13.02;5.78;;;;;;;;;;5007613;28;20057;-66
2022/02/10 21:25:52;;;;;;;11.50;4.30;;;;;;;;;;5009860;28;20049;-66
2022/02/10 21:28:23;;;;;;;13.73;4.90;;;;;;;;;;5006760;28;20180;-66
2022/02/10 21:30:55;;;;;;;10.75;5.20;;;;;;;;;;5008117;28;20054;-66
2022/02/10 21:33:30;;;;;;;9.15;5.38;;;;;;;;;;5007229;28;20132;-66
2022/02/10 21:38:48;;;;;;;;;;;;;;;;;;5006334;28;20053;-66
2022/02/10 21:53:08;;;;;;;10.68;5.22;;;;;;;;;;4971848;28;20133;-66
2022/02/10 22:05:08;;;;;;;11.70;5.15;;;;;;;;;;4058885;28;10002039;-67
2022/02/10 22:10:31;;;;;;;10.27;4.80;;;;;;;;;;4998231;28;20054;-66
2022/02/10 22:18:46;;;;;;;9.77;5.05;;;;;;;;;;5007724;28;20089;-66
2022/02/10 22:21:18;;;;;;;9.73;4.25;;;;;;;;;;5010118;28;20160;-66
2022/02/10 22:23:48;;;;;;;11.98;5.53;;;;;;;;;;5009464;28;20042;-66
2022/02/10 22:26:23;;;;;;;15.23;4.95;;;;;;;;;;5010530;28;20069;-66
2022/02/10 22:28:57;;;;;;;12.02;5.35;;;;;;;;;;5010056;28;20046;-66
2022/02/10 22:31:36;;;;;;;10.60;4.90;;;;;;;;;;5009651;28;20073;-66
2022/02/10 22:34:14;;;;;;;16.15;4.82;;;;;;;;;;5008239;28;20475;-66
2022/02/10 22:36:45;;;;;;;7.93;4.47;;;;;;;;;;5005326;28;20377;-66
2022/02/10 22:39:14;;;;;;;8.85;4.40;;;;;;;;;;5007607;28;20085;-66
2022/02/10 22:41:45;;;;;;;12.00;4.22;;;;;;;;;;5007439;28;20148;-66
2022/02/10 22:44:14;;;;;;;6.97;4.07;;;;;;;;;;5009511;28;20112;-66
2022/02/10 22:46:45;;;;;;;9.23;4.40;;;;;;;;;;5010100;28;20072;-66
2022/02/10 22:49:13;;;;;;;8.43;4.38;;;;;;;;;;5008582;28;20502;-66
2022/02/10 22:51:42;;;;;;;11.18;4.57;;;;;;;;;;5009865;28;20054;-66
2022/02/10 22:54:13;;;;;;;10.02;4.47;;;;;;;;;;5005104;28;20505;-66
2022/02/10 22:56:42;;;;;;;10.18;4.38;;;;;;;;;;5005930;28;20108;-66
2022/02/10 22:59:10;;;;;;;12.48;4.30;;;;;;;;;;4989080;28;20569;-66
2022/02/10 23:01:39;;;;;;;9.07;4.35;;;;;;;;;;4989800;28;20051;-66
2022/02/10 23:04:09;;;;;;;17.27;5.00;;;;;;;;;;4986708;28;20081;-66
2022/02/10 23:06:38;;;;;;;14.13;4.90;;;;;;;;;;4989498;28;20118;-66
2022/02/10 23:11:49;;;;;;;12.15;4.85;;;;;;;;;;4998842;28;20058;-66
2022/02/10 23:14:17;;;;;;;13.75;4.60;;;;;;;;;;4989119;28;20521;-66
2022/02/10 23:16:46;;;;;;;8.80;4.55;;;;;;;;;;4987492;28;20506;-66
2022/02/10 23:19:16;;;;;;;12.70;5.32;;;;;;;;;;4989393;28;20125;-66
2022/02/10 23:21:44;;;;;;;8.82;4.28;;;;;;;;;;4990030;28;20046;-66
2022/02/10 23:24:13;;;;;;;15.55;5.10;;;;;;;;;;4987137;28;20417;-66
2022/02/10 23:26:41;;;;;;;12.68;5.07;;;;;;;;;;4988795;28;20158;-66
2022/02/10 23:29:10;;;;;;;12.48;5.25;;;;;;;;;;4989522;28;20442;-66
2022/02/10 23:31:38;;;;;;;12.40;5.15;;;;;;;;;;4988586;28;20105;-66
2022/02/10 23:34:06;;;;;;;9.80;4.85;;;;;;;;;;4989081;28;20057;-66
2022/02/10 23:36:48;;;;;;;11.13;4.80;;;;;;;;;;4988644;28;20263;-66
2022/02/10 23:39:20;;;;;;;13.13;4.93;;;;;;;;;;4988473;28;20069;-66
2022/02/10 23:41:58;;;;;;;12.48;5.43;;;;;;;;;;4989127;28;20060;-66
2022/02/10 23:44:30;;;;;;;13.02;5.03;;;;;;;;;;4986706;28;20455;-66
2022/02/10 23:46:59;;;;;;;10.07;4.35;;;;;;;;;;4987287;28;20050;-66
2022/02/10 23:49:30;;;;;;;10.00;4.35;;;;;;;;;;4989773;28;20050;-66
2022/02/10 23:52:00;;;;;;;8.35;4.00;;;;;;;;;;4988192;28;20064;-66
2022/02/10 23:54:30;;;;;;;11.95;3.88;;;;;;;;;;4988697;28;20506;-66
2022/02/10 23:57:04;;;;;;;8.52;4.30;;;;;;;;;;4992279;28;20050;-66
2022/02/10 23:59:45;;;;;;;9.52;4.28;;;;;;;;;;5006624;28;20124;-66
